createdAt,value
2019-03-08T00:00:39.051Z,85.14
2019-03-08T00:01:39.275Z,85.33
2019-03-08T00:02:39.499Z,85.14
2019-03-08T00:03:39.723Z,85.24
2019-03-08T00:04:39.947Z,85.14
2019-03-08T00:05:40.169Z,85.24
2019-03-08T00:06:40.393Z,85.24
2019-03-08T00:07:40.615Z,85.24
2019-03-08T00:08:40.840Z,85.24
2019-03-08T00:09:41.063Z,84.95
2019-03-08T00:10:41.289Z,85.61
2019-03-08T00:11:41.510Z,85.42
2019-03-08T00:12:41.732Z,85.33
2019-03-08T00:13:41.956Z,85.80
2019-03-08T00:14:42.177Z,85.99
2019-03-08T00:15:42.403Z,85.71
2019-03-08T00:16:42.624Z,85.76
2019-03-08T00:17:42.846Z,85.80
2019-03-08T00:18:43.070Z,85.71
2019-03-08T00:19:43.294Z,85.99
2019-03-08T00:20:43.518Z,86.18
2019-03-08T00:21:43.741Z,85.99
2019-03-08T00:22:43.965Z,86.09
2019-03-08T00:23:44.190Z,85.99
2019-03-08T00:24:44.411Z,86.18
2019-03-08T00:25:44.637Z,85.80
2019-03-08T00:26:44.861Z,85.71
2019-03-08T00:27:45.087Z,85.61
2019-03-08T00:28:45.310Z,85.61
2019-03-08T00:29:45.533Z,85.52
2019-03-08T00:30:45.759Z,85.33
2019-03-08T00:31:45.979Z,85.33
2019-03-08T00:32:46.202Z,84.95
2019-03-08T00:33:46.425Z,84.95
2019-03-08T00:34:46.651Z,85.04
2019-03-08T00:35:46.873Z,84.95
2019-03-08T00:36:47.099Z,84.85
2019-03-08T00:37:47.322Z,85.04
2019-03-08T00:38:47.558Z,84.47
2019-03-08T00:39:47.768Z,84.85
2019-03-08T00:40:47.991Z,84.66
2019-03-08T00:41:48.220Z,84.76
2019-03-08T00:42:48.440Z,84.85
2019-03-08T00:43:48.663Z,84.76
2019-03-08T00:44:48.888Z,84.85
2019-03-08T00:45:49.114Z,84.70
2019-03-08T00:46:49.337Z,84.61
2019-03-08T00:47:49.558Z,84.85
2019-03-08T00:48:49.783Z,85.18
2019-03-08T00:49:50.005Z,85.24
2019-03-08T00:50:50.227Z,85.14
2019-03-08T00:51:50.479Z,85.33
2019-03-08T00:52:50.675Z,85.33
2019-03-08T00:53:50.898Z,85.56
2019-03-08T00:54:51.121Z,85.80
2019-03-08T00:55:51.345Z,85.71
2019-03-08T00:56:51.565Z,85.61
2019-03-08T00:57:51.790Z,86.28
2019-03-08T00:58:52.012Z,86.85
2019-03-08T00:59:52.235Z,86.76
2019-03-08T01:00:52.461Z,86.66
2019-03-08T01:01:52.684Z,86.57
2019-03-08T01:02:52.907Z,86.57
2019-03-08T01:03:53.135Z,86.85
2019-03-08T01:04:53.363Z,86.18
2019-03-08T01:05:53.585Z,86.28
2019-03-08T01:06:53.808Z,86.18
2019-03-08T01:07:54.033Z,86.85
2019-03-08T01:08:54.257Z,86.94
2019-03-08T01:09:54.480Z,86.18
2019-03-08T01:10:54.706Z,86.28
2019-03-08T01:11:54.930Z,86.57
2019-03-08T01:12:55.154Z,86.66
2019-03-08T01:13:55.379Z,86.66
2019-03-08T01:14:55.601Z,86.66
2019-03-08T01:15:55.826Z,86.94
2019-03-08T01:16:56.048Z,86.66
2019-03-08T01:17:56.271Z,86.94
2019-03-08T01:18:56.498Z,87.23
2019-03-08T01:19:56.718Z,87.23
2019-03-08T01:20:56.945Z,87.42
2019-03-08T01:21:57.165Z,86.94
2019-03-08T01:22:57.387Z,87.42
2019-03-08T01:23:57.609Z,87.99
2019-03-08T01:24:57.833Z,87.61
2019-03-08T01:25:58.057Z,87.71
2019-03-08T01:26:58.286Z,88.37
2019-03-08T01:27:58.510Z,87.90
2019-03-08T01:28:58.740Z,87.99
2019-03-08T01:29:58.956Z,88.09
2019-03-08T01:30:59.183Z,88.09
2019-03-08T01:31:59.406Z,88.28
2019-03-08T01:32:59.626Z,87.90
2019-03-08T01:33:59.849Z,87.80
2019-03-08T01:35:00.073Z,87.90
2019-03-08T01:36:00.296Z,87.90
2019-03-08T01:37:00.520Z,87.61
2019-03-08T01:38:00.748Z,87.71
2019-03-08T01:39:00.970Z,87.90
2019-03-08T01:40:01.192Z,87.80
2019-03-08T01:41:01.413Z,87.71
2019-03-08T01:42:01.636Z,87.99
2019-03-08T01:43:01.859Z,87.61
2019-03-08T01:44:02.085Z,87.99
2019-03-08T01:45:03.773Z,87.85
2019-03-08T01:46:02.528Z,87.85
2019-03-08T01:47:02.754Z,88.13
2019-03-08T01:48:02.977Z,88.04
2019-03-08T01:49:03.204Z,88.04
2019-03-08T01:50:03.423Z,88.13
2019-03-08T01:51:03.645Z,87.95
2019-03-08T01:52:03.866Z,88.23
2019-03-08T01:53:04.090Z,88.52
2019-03-08T01:54:04.311Z,88.61
2019-03-08T01:55:04.538Z,88.42
2019-03-08T01:56:04.760Z,88.71
2019-03-08T01:57:04.984Z,88.80
2019-03-08T01:58:05.207Z,89.09
2019-03-08T01:59:05.429Z,88.61
2019-03-08T02:00:05.653Z,89.28
2019-03-08T02:01:05.874Z,89.18
2019-03-08T02:02:06.099Z,89.00
2019-03-08T02:03:06.323Z,89.18
2019-03-08T02:04:06.546Z,89.18
2019-03-08T02:05:06.774Z,88.90
2019-03-08T02:06:06.996Z,88.80
2019-03-08T02:07:07.218Z,89.28
2019-03-08T02:08:07.439Z,88.52
2019-03-08T02:09:07.664Z,89.28
2019-03-08T02:10:07.887Z,88.52
2019-03-08T02:11:08.112Z,89.00
2019-03-08T02:12:08.336Z,89.00
2019-03-08T02:13:08.557Z,89.00
2019-03-08T02:14:08.784Z,90.04
2019-03-08T02:15:09.005Z,89.66
2019-03-08T02:16:09.227Z,90.14
2019-03-08T02:17:09.449Z,90.14
2019-03-08T02:18:09.673Z,90.52
2019-03-08T02:19:09.898Z,90.14
2019-03-08T02:20:10.118Z,89.75
2019-03-08T02:21:10.341Z,90.61
2019-03-08T02:22:10.567Z,89.75
2019-03-08T02:23:10.787Z,89.94
2019-03-08T02:24:11.012Z,90.04
2019-03-08T02:25:11.233Z,90.33
2019-03-08T02:26:11.459Z,90.04
2019-03-08T02:27:11.680Z,90.14
2019-03-08T02:28:11.906Z,90.23
2019-03-08T02:29:12.126Z,90.52
2019-03-08T02:30:12.634Z,90.42
2019-03-08T02:31:12.620Z,90.23
2019-03-08T02:32:12.842Z,90.23
2019-03-08T02:33:13.064Z,90.14
2019-03-08T02:34:13.287Z,90.52
2019-03-08T02:35:13.512Z,90.52
2019-03-08T02:36:13.734Z,90.52
2019-03-08T02:37:13.955Z,90.23
2019-03-08T02:38:14.177Z,90.23
2019-03-08T02:39:14.402Z,90.42
2019-03-08T02:40:14.625Z,90.23
2019-03-08T02:41:14.849Z,89.85
2019-03-08T02:42:15.072Z,90.23
2019-03-08T02:43:15.295Z,90.14
2019-03-08T02:44:15.521Z,90.52
2019-03-08T02:45:15.741Z,90.23
2019-03-08T02:46:15.962Z,89.94
2019-03-08T02:47:16.183Z,90.52
2019-03-08T02:48:16.409Z,90.52
2019-03-08T02:49:16.631Z,89.85
2019-03-08T02:50:16.856Z,89.94
2019-03-08T02:51:17.081Z,90.33
2019-03-08T02:52:17.307Z,90.42
2019-03-08T02:53:17.529Z,90.52
2019-03-08T02:54:17.753Z,90.52
2019-03-08T02:55:17.979Z,90.14
2019-03-08T02:56:18.198Z,90.52
2019-03-08T02:57:18.422Z,89.37
2019-03-08T02:58:18.644Z,89.00
2019-03-08T02:59:18.869Z,88.52
2019-03-08T03:00:19.240Z,88.80
2019-03-08T03:01:19.285Z,89.18
2019-03-08T03:02:19.491Z,89.18
2019-03-08T03:03:19.715Z,89.00
2019-03-08T03:04:19.939Z,88.13
2019-03-08T03:05:20.166Z,88.66
2019-03-08T03:06:20.385Z,87.61
2019-03-08T03:07:20.614Z,87.80
2019-03-08T03:08:20.830Z,87.23
2019-03-08T03:09:21.055Z,87.13
2019-03-08T03:10:21.276Z,87.57
2019-03-08T03:11:21.500Z,86.80
2019-03-08T03:12:21.725Z,86.57
2019-03-08T03:13:21.950Z,85.76
2019-03-08T03:14:22.175Z,85.04
2019-03-08T03:15:22.398Z,84.91
2019-03-08T03:16:22.621Z,84.33
2019-03-08T03:17:22.843Z,84.09
2019-03-08T03:18:23.065Z,84.19
2019-03-08T03:19:23.287Z,84.43
2019-03-08T03:20:23.512Z,83.86
2019-03-08T03:21:23.736Z,83.58
2019-03-08T03:22:23.962Z,83.58
2019-03-08T03:23:24.184Z,83.86
2019-03-08T03:24:24.411Z,83.33
2019-03-08T03:25:24.632Z,83.23
2019-03-08T03:26:24.854Z,83.00
2019-03-08T03:27:25.077Z,83.33
2019-03-08T03:28:25.303Z,82.67
2019-03-08T03:29:25.527Z,82.00
2019-03-08T03:30:25.750Z,82.09
2019-03-08T03:31:25.977Z,82.28
2019-03-08T03:32:26.200Z,82.28
2019-03-08T03:33:26.422Z,82.28
2019-03-08T03:34:26.645Z,82.19
2019-03-08T03:35:26.871Z,82.00
2019-03-08T03:36:27.091Z,82.67
2019-03-08T03:37:27.317Z,82.76
2019-03-08T03:38:27.537Z,82.38
2019-03-08T03:39:27.762Z,82.48
2019-03-08T03:40:27.984Z,82.38
2019-03-08T03:41:28.208Z,82.38
2019-03-08T03:42:28.430Z,82.19
2019-03-08T03:43:28.655Z,82.19
2019-03-08T03:44:28.878Z,82.19
2019-03-08T03:45:29.103Z,81.81
2019-03-08T03:46:29.328Z,81.81
2019-03-08T03:47:29.552Z,81.43
2019-03-08T03:48:29.778Z,81.24
2019-03-08T03:49:30.001Z,81.24
2019-03-08T03:50:30.226Z,81.24
2019-03-08T03:51:30.452Z,80.76
2019-03-08T03:52:30.674Z,80.86
2019-03-08T03:53:30.897Z,80.47
2019-03-08T03:54:31.119Z,80.57
2019-03-08T03:55:31.342Z,80.66
2019-03-08T03:56:31.566Z,80.95
2019-03-08T03:57:31.793Z,80.38
2019-03-08T03:58:32.013Z,80.19
2019-03-08T03:59:32.235Z,80.00
2019-03-08T04:00:32.459Z,79.81
2019-03-08T04:01:32.685Z,79.62
2019-03-08T04:02:32.907Z,80.10
2019-03-08T04:03:33.130Z,79.24
2019-03-08T04:04:33.354Z,80.10
2019-03-08T04:05:33.581Z,79.24
2019-03-08T04:06:33.804Z,79.14
2019-03-08T04:07:34.025Z,78.96
2019-03-08T04:08:34.251Z,79.52
2019-03-08T04:09:34.472Z,78.77
2019-03-08T04:10:34.697Z,78.77
2019-03-08T04:11:34.918Z,78.77
2019-03-08T04:12:35.144Z,78.19
2019-03-08T04:13:35.365Z,78.77
2019-03-08T04:14:35.588Z,77.91
2019-03-08T04:15:35.813Z,77.91
2019-03-08T04:16:36.036Z,77.62
2019-03-08T04:17:36.257Z,77.72
2019-03-08T04:18:36.484Z,77.53
2019-03-08T04:19:36.703Z,77.91
2019-03-08T04:20:36.927Z,78.00
2019-03-08T04:21:37.149Z,77.53
2019-03-08T04:22:37.376Z,77.81
2019-03-08T04:23:37.597Z,77.43
2019-03-08T04:24:37.817Z,77.72
2019-03-08T04:25:38.041Z,77.81
2019-03-08T04:26:38.265Z,78.00
2019-03-08T04:27:38.487Z,77.24
2019-03-08T04:28:38.711Z,77.53
2019-03-08T04:29:38.936Z,77.53
2019-03-08T04:30:39.159Z,77.53
2019-03-08T04:31:39.382Z,77.62
2019-03-08T04:32:39.610Z,77.53
2019-03-08T04:33:39.877Z,77.43
2019-03-08T04:34:40.054Z,77.34
2019-03-08T04:35:40.282Z,77.43
2019-03-08T04:36:40.501Z,77.15
2019-03-08T04:37:40.725Z,77.24
2019-03-08T04:38:40.948Z,77.24
2019-03-08T04:39:41.175Z,77.53
2019-03-08T04:40:41.398Z,77.15
2019-03-08T04:41:41.619Z,77.43
2019-03-08T04:42:41.852Z,77.24
2019-03-08T04:43:42.068Z,77.15
2019-03-08T04:44:42.289Z,77.53
2019-03-08T04:45:42.517Z,77.62
2019-03-08T04:46:42.739Z,77.53
2019-03-08T04:47:42.980Z,77.43
2019-03-08T04:48:43.199Z,77.34
2019-03-08T04:49:43.420Z,77.34
2019-03-08T04:50:43.644Z,77.24
2019-03-08T04:51:43.866Z,77.05
2019-03-08T04:52:44.090Z,77.15
2019-03-08T04:53:44.315Z,77.34
2019-03-08T04:54:44.538Z,77.43
2019-03-08T04:55:44.762Z,76.96
2019-03-08T04:56:44.987Z,77.05
2019-03-08T04:57:45.211Z,77.43
2019-03-08T04:58:45.434Z,77.24
2019-03-08T04:59:45.651Z,77.34
2019-03-08T05:00:45.877Z,76.57
2019-03-08T05:01:46.099Z,77.05
2019-03-08T05:02:46.323Z,77.05
2019-03-08T05:03:46.549Z,76.96
2019-03-08T05:04:46.769Z,77.05
2019-03-08T05:05:46.994Z,77.34
2019-03-08T05:06:47.220Z,77.24
2019-03-08T05:07:47.444Z,77.43
2019-03-08T05:08:47.667Z,77.53
2019-03-08T05:09:47.888Z,77.15
2019-03-08T05:10:48.117Z,77.43
2019-03-08T05:11:48.336Z,77.24
2019-03-08T05:12:48.575Z,77.43
2019-03-08T05:13:48.788Z,77.15
2019-03-08T05:14:49.016Z,77.24
2019-03-08T05:15:49.237Z,78.10
2019-03-08T05:16:49.461Z,77.34
2019-03-08T05:17:49.684Z,77.24
2019-03-08T05:18:49.906Z,78.10
2019-03-08T05:19:50.129Z,77.53
2019-03-08T05:20:50.354Z,77.24
2019-03-08T05:21:50.577Z,77.62
2019-03-08T05:22:50.800Z,77.53
2019-03-08T05:23:51.025Z,77.24
2019-03-08T05:24:51.250Z,77.15
2019-03-08T05:25:51.472Z,77.05
2019-03-08T05:26:51.695Z,77.34
2019-03-08T05:27:51.923Z,77.24
2019-03-08T05:28:52.143Z,76.96
2019-03-08T05:29:52.370Z,77.05
2019-03-08T05:30:52.598Z,76.86
2019-03-08T05:31:52.818Z,77.24
2019-03-08T05:32:53.046Z,77.34
2019-03-08T05:33:53.265Z,77.05
2019-03-08T05:34:53.490Z,77.05
2019-03-08T05:35:53.715Z,77.05
2019-03-08T05:36:53.931Z,76.96
2019-03-08T05:37:54.156Z,77.24
2019-03-08T05:38:54.381Z,77.34
2019-03-08T05:39:54.604Z,77.05
2019-03-08T05:40:54.827Z,76.20
2019-03-08T05:41:55.050Z,76.67
2019-03-08T05:42:55.275Z,77.05
2019-03-08T05:43:55.500Z,77.05
2019-03-08T05:44:55.723Z,76.76
2019-03-08T05:45:55.949Z,77.34
2019-03-08T05:46:56.168Z,77.34
2019-03-08T05:47:56.398Z,77.34
2019-03-08T05:48:56.619Z,77.24
2019-03-08T05:49:56.840Z,77.43
2019-03-08T05:50:57.068Z,77.34
2019-03-08T05:51:57.288Z,77.34
2019-03-08T05:52:57.515Z,77.24
2019-03-08T05:53:57.739Z,77.15
2019-03-08T05:54:57.962Z,77.15
2019-03-08T05:55:58.186Z,77.91
2019-03-08T05:56:58.415Z,77.43
2019-03-08T05:57:58.638Z,77.43
2019-03-08T05:58:58.862Z,77.15
2019-03-08T05:59:59.086Z,77.91
2019-03-08T06:00:59.307Z,77.62
2019-03-08T06:01:59.532Z,77.72
2019-03-08T06:02:59.757Z,77.53
2019-03-08T06:03:59.982Z,77.62
2019-03-08T06:05:00.381Z,77.53
2019-03-08T06:06:00.432Z,77.62
2019-03-08T06:07:00.657Z,78.10
2019-03-08T06:08:00.880Z,77.72
2019-03-08T06:09:01.104Z,78.10
2019-03-08T06:10:01.326Z,77.81
2019-03-08T06:11:01.550Z,78.00
2019-03-08T06:12:01.779Z,78.00
2019-03-08T06:13:01.990Z,77.81
2019-03-08T06:14:02.216Z,77.72
2019-03-08T06:15:02.441Z,77.72
2019-03-08T06:16:02.667Z,77.62
2019-03-08T06:17:02.892Z,77.81
2019-03-08T06:18:03.111Z,77.72
2019-03-08T06:19:03.334Z,77.72
2019-03-08T06:20:03.559Z,78.19
2019-03-08T06:21:03.793Z,78.57
2019-03-08T06:22:04.007Z,77.81
2019-03-08T06:23:04.716Z,77.72
2019-03-08T06:24:04.455Z,78.38
2019-03-08T06:25:04.682Z,78.38
2019-03-08T06:26:04.905Z,78.29
2019-03-08T06:27:05.126Z,78.48
2019-03-08T06:28:05.355Z,78.86
2019-03-08T06:29:05.576Z,78.48
2019-03-08T06:30:05.801Z,78.00
2019-03-08T06:31:06.029Z,78.19
2019-03-08T06:32:06.249Z,78.19
2019-03-08T06:33:06.471Z,78.00
2019-03-08T06:34:06.695Z,78.10
2019-03-08T06:35:06.917Z,78.48
2019-03-08T06:36:07.139Z,78.77
2019-03-08T06:37:07.363Z,78.77
2019-03-08T06:38:07.589Z,78.77
2019-03-08T06:39:07.813Z,78.67
2019-03-08T06:40:08.036Z,78.77
2019-03-08T06:41:08.262Z,78.77
2019-03-08T06:42:08.505Z,79.43
2019-03-08T06:43:08.737Z,79.33
2019-03-08T06:44:08.955Z,79.14
2019-03-08T06:45:09.175Z,78.67
2019-03-08T06:46:09.400Z,79.05
2019-03-08T06:47:09.623Z,78.86
2019-03-08T06:48:09.849Z,79.14
2019-03-08T06:49:10.070Z,79.62
2019-03-08T06:50:10.294Z,79.62
2019-03-08T06:51:10.519Z,79.43
2019-03-08T06:52:10.743Z,79.14
2019-03-08T06:53:10.967Z,79.14
2019-03-08T06:54:11.189Z,79.72
2019-03-08T06:55:11.414Z,79.91
2019-03-08T06:56:11.641Z,79.24
2019-03-08T06:57:11.864Z,79.52
2019-03-08T06:58:12.085Z,79.81
2019-03-08T06:59:12.309Z,79.81
2019-03-08T07:00:12.554Z,79.72
2019-03-08T07:01:12.776Z,79.72
2019-03-08T07:02:12.996Z,80.00
2019-03-08T07:03:13.222Z,79.81
2019-03-08T07:04:13.443Z,79.72
2019-03-08T07:05:13.667Z,79.62
2019-03-08T07:06:13.893Z,79.62
2019-03-08T07:07:14.115Z,79.52
2019-03-08T07:08:14.341Z,79.91
2019-03-08T07:09:14.564Z,80.38
2019-03-08T07:10:14.787Z,79.81
2019-03-08T07:11:15.011Z,80.29
2019-03-08T07:12:15.235Z,79.52
2019-03-08T07:13:15.463Z,79.66
2019-03-08T07:14:15.686Z,79.94
2019-03-08T07:15:15.909Z,79.72
2019-03-08T07:16:16.132Z,79.72
2019-03-08T07:17:16.356Z,80.04
2019-03-08T07:18:16.580Z,80.13
2019-03-08T07:19:16.802Z,79.85
2019-03-08T07:20:17.027Z,80.00
2019-03-08T07:21:17.250Z,80.04
2019-03-08T07:22:17.475Z,79.66
2019-03-08T07:23:17.697Z,79.85
2019-03-08T07:24:17.924Z,80.04
2019-03-08T07:25:18.148Z,79.85
2019-03-08T07:26:18.371Z,79.85
2019-03-08T07:27:18.617Z,79.66
2019-03-08T07:28:18.822Z,79.85
2019-03-08T07:29:19.041Z,79.66
2019-03-08T07:30:20.025Z,79.75
2019-03-08T07:31:20.246Z,79.75
2019-03-08T07:32:19.651Z,79.81
2019-03-08T07:33:19.881Z,79.75
2019-03-08T07:34:20.106Z,79.85
2019-03-08T07:35:20.329Z,79.75
2019-03-08T07:36:20.553Z,80.33
2019-03-08T07:37:20.780Z,80.52
2019-03-08T07:38:21.005Z,80.52
2019-03-08T07:39:21.233Z,80.52
2019-03-08T07:40:21.455Z,80.23
2019-03-08T07:41:21.677Z,80.52
2019-03-08T07:42:21.901Z,80.71
2019-03-08T07:43:22.125Z,80.71
2019-03-08T07:44:22.346Z,80.80
2019-03-08T07:45:22.576Z,80.90
2019-03-08T07:46:22.806Z,80.80
2019-03-08T07:47:23.025Z,81.37
2019-03-08T07:48:23.249Z,81.76
2019-03-08T07:49:23.473Z,82.23
2019-03-08T07:50:23.697Z,83.37
2019-03-08T07:51:23.922Z,83.75
2019-03-08T07:52:24.149Z,85.28
2019-03-08T07:53:24.377Z,85.08
2019-03-08T07:54:24.598Z,86.22
2019-03-08T07:55:24.823Z,86.32
2019-03-08T07:56:25.046Z,86.13
2019-03-08T07:57:25.270Z,86.70
2019-03-08T07:58:25.492Z,86.99
2019-03-08T07:59:25.719Z,87.08
2019-03-08T08:00:25.946Z,88.18
2019-03-08T08:01:26.168Z,88.75
2019-03-08T08:02:26.391Z,89.99
2019-03-08T08:03:26.616Z,89.89
2019-03-08T08:04:26.836Z,90.56
2019-03-08T08:05:27.065Z,90.66
2019-03-08T08:06:27.287Z,91.99
2019-03-08T08:07:27.515Z,92.94
2019-03-08T08:08:27.735Z,93.70
2019-03-08T08:09:27.961Z,93.51
2019-03-08T08:10:28.182Z,93.89
2019-03-08T08:11:28.409Z,94.37
2019-03-08T08:12:28.639Z,94.56
2019-03-08T08:13:28.859Z,95.03
2019-03-08T08:14:29.081Z,95.41
2019-03-08T08:15:29.305Z,95.70
2019-03-08T08:16:29.528Z,96.55
2019-03-08T08:17:29.757Z,96.94
2019-03-08T08:18:29.981Z,98.08
2019-03-08T08:19:30.204Z,98.17
2019-03-08T08:20:30.433Z,99.02
2019-03-08T08:21:30.654Z,98.74
2019-03-08T08:22:30.877Z,98.65
2019-03-08T08:23:34.369Z,99.02
2019-03-08T08:24:31.327Z,99.69
2019-03-08T08:25:36.751Z,99.99
2019-03-08T08:26:31.775Z,99.99
2019-03-08T08:27:31.996Z,99.74
2019-03-08T08:28:32.224Z,99.99
2019-03-08T08:29:35.317Z,99.99
2019-03-08T08:30:32.673Z,99.99
2019-03-08T08:31:32.899Z,99.99
2019-03-08T08:32:33.123Z,99.99
2019-03-08T08:33:33.359Z,99.99
2019-03-08T08:34:33.564Z,99.99
2019-03-08T08:35:33.791Z,99.99
2019-03-08T08:36:34.016Z,99.99
2019-03-08T08:37:34.238Z,99.99
2019-03-08T08:38:34.462Z,99.99
2019-03-08T08:39:34.687Z,99.99
2019-03-08T08:40:34.913Z,99.99
2019-03-08T08:41:35.133Z,99.99
2019-03-08T08:42:35.357Z,99.99
2019-03-08T08:43:35.581Z,99.99
2019-03-08T08:44:35.808Z,99.99
2019-03-08T08:45:36.032Z,99.99
2019-03-08T08:46:36.257Z,99.99
2019-03-08T08:47:36.478Z,99.99
2019-03-08T08:48:36.706Z,99.99
2019-03-08T08:49:36.929Z,99.99
2019-03-08T08:50:37.154Z,99.99
2019-03-08T08:51:37.378Z,99.99
2019-03-08T08:52:37.603Z,99.99
2019-03-08T08:53:37.826Z,99.99
2019-03-08T08:54:38.054Z,99.99
2019-03-08T08:55:38.278Z,99.99
2019-03-08T08:56:38.502Z,99.99
2019-03-08T08:57:38.730Z,99.99
2019-03-08T08:58:38.966Z,99.74
2019-03-08T08:59:39.189Z,99.41
2019-03-08T09:00:39.415Z,98.27
2019-03-08T09:01:39.637Z,99.99
2019-03-08T09:02:39.864Z,99.99
2019-03-08T09:03:40.087Z,99.99
2019-03-08T09:04:40.311Z,99.60
2019-03-08T09:05:40.535Z,98.27
2019-03-08T09:06:40.762Z,96.84
2019-03-08T09:07:40.992Z,97.22
2019-03-08T09:08:41.232Z,97.03
2019-03-08T09:09:41.438Z,96.65
2019-03-08T09:10:41.665Z,96.08
2019-03-08T09:11:48.551Z,95.12
2019-03-08T09:12:42.114Z,95.98
2019-03-08T09:13:42.342Z,96.41
2019-03-08T09:14:42.574Z,96.75
2019-03-08T09:15:42.790Z,96.75
2019-03-08T09:16:43.015Z,95.84
2019-03-08T09:17:43.239Z,94.70
2019-03-08T09:18:43.464Z,95.17
2019-03-08T09:19:43.723Z,95.56
2019-03-08T09:20:43.945Z,94.89
2019-03-08T09:21:44.169Z,95.46
2019-03-08T09:22:44.397Z,94.89
2019-03-08T09:23:44.622Z,95.17
2019-03-08T09:24:44.848Z,93.46
2019-03-08T09:25:45.074Z,93.65
2019-03-08T09:26:45.298Z,93.65
2019-03-08T09:27:45.523Z,94.32
2019-03-08T09:28:45.751Z,94.51
2019-03-08T09:29:45.973Z,93.65
2019-03-08T09:30:46.195Z,93.84
2019-03-08T09:31:46.420Z,94.32
2019-03-08T09:32:46.652Z,93.37
2019-03-08T09:33:46.875Z,92.79
2019-03-08T09:34:47.101Z,92.79
2019-03-08T09:35:47.326Z,92.60
2019-03-08T09:36:47.555Z,92.13
2019-03-08T09:37:47.778Z,92.32
2019-03-08T09:38:48.002Z,92.89
2019-03-08T09:39:48.226Z,91.65
2019-03-08T09:40:48.450Z,92.17
2019-03-08T09:41:48.676Z,92.17
2019-03-08T09:42:48.900Z,91.13
2019-03-08T09:43:49.131Z,90.70
2019-03-08T09:44:49.351Z,90.79
2019-03-08T09:45:49.575Z,90.79
2019-03-08T09:46:49.801Z,91.22
2019-03-08T09:47:50.026Z,91.27
2019-03-08T09:48:50.251Z,91.55
2019-03-08T09:49:50.477Z,91.55
2019-03-08T09:50:50.701Z,91.74
2019-03-08T09:51:50.927Z,90.98
2019-03-08T09:52:51.152Z,90.70
2019-03-08T09:53:51.378Z,90.22
2019-03-08T09:54:51.606Z,90.31
2019-03-08T09:55:51.828Z,90.03
2019-03-08T09:56:52.052Z,89.65
2019-03-08T09:57:52.279Z,90.79
2019-03-08T09:58:52.501Z,90.45
2019-03-08T09:59:52.724Z,89.55
2019-03-08T10:00:52.950Z,90.12
2019-03-08T10:01:53.177Z,90.08
2019-03-08T10:02:53.403Z,90.36
2019-03-08T10:03:53.630Z,90.55
2019-03-08T10:04:53.859Z,90.17
2019-03-08T10:05:54.082Z,90.17
2019-03-08T10:06:54.309Z,89.60
2019-03-08T10:07:54.535Z,90.08
2019-03-08T10:08:56.363Z,89.50
2019-03-08T10:09:54.985Z,89.03
2019-03-08T10:10:55.210Z,89.12
2019-03-08T10:11:55.438Z,89.22
2019-03-08T10:12:55.661Z,89.31
2019-03-08T10:13:55.886Z,89.60
2019-03-08T10:14:56.111Z,89.89
2019-03-08T10:15:56.337Z,89.69
2019-03-08T10:16:56.565Z,90.36
2019-03-08T10:17:56.789Z,89.98
2019-03-08T10:18:57.015Z,90.41
2019-03-08T10:19:57.241Z,89.75
2019-03-08T10:20:57.466Z,89.03
2019-03-08T10:21:57.695Z,89.75
2019-03-08T10:22:57.920Z,88.22
2019-03-08T10:23:58.145Z,88.03
2019-03-08T10:24:58.372Z,88.60
2019-03-08T10:25:58.597Z,89.75
2019-03-08T10:26:58.822Z,89.50
2019-03-08T10:27:59.046Z,88.36
2019-03-08T10:28:59.274Z,89.40
2019-03-08T10:29:59.502Z,87.88
2019-03-08T10:30:59.725Z,86.83
2019-03-08T10:31:59.948Z,86.83
2019-03-08T10:33:00.174Z,86.93
2019-03-08T10:34:00.400Z,86.45
2019-03-08T10:35:00.623Z,86.07
2019-03-08T10:36:00.849Z,85.97
2019-03-08T10:37:01.082Z,86.93
2019-03-08T10:38:01.303Z,86.69
2019-03-08T10:39:01.529Z,86.59
2019-03-08T10:40:01.757Z,86.11
2019-03-08T10:41:01.983Z,85.54
2019-03-08T10:42:02.213Z,85.54
2019-03-08T10:43:02.432Z,85.35
2019-03-08T10:44:08.865Z,84.49
2019-03-08T10:45:02.888Z,83.83
2019-03-08T10:46:03.111Z,84.78
2019-03-08T10:47:03.339Z,84.78
2019-03-08T10:48:03.563Z,83.92
2019-03-08T10:49:03.802Z,83.16
2019-03-08T10:50:04.012Z,82.30
2019-03-08T10:51:04.238Z,82.43
2019-03-08T10:52:04.465Z,81.92
2019-03-08T10:53:04.692Z,82.20
2019-03-08T10:54:04.915Z,81.44
2019-03-08T10:55:05.142Z,81.06
2019-03-08T10:56:05.378Z,81.06
2019-03-08T10:57:05.595Z,81.82
2019-03-08T10:58:05.817Z,81.44
2019-03-08T10:59:06.042Z,81.29
2019-03-08T11:00:06.275Z,81.29
2019-03-08T11:01:06.492Z,80.81
2019-03-08T11:02:06.719Z,81.38
2019-03-08T11:03:06.945Z,81.10
2019-03-08T11:04:07.173Z,81.29
2019-03-08T11:05:07.397Z,81.01
2019-03-08T11:06:07.626Z,79.57
2019-03-08T11:07:07.848Z,79.57
2019-03-08T11:08:09.036Z,79.86
2019-03-08T11:09:08.303Z,79.10
2019-03-08T11:10:08.529Z,78.81
2019-03-08T11:11:08.753Z,77.95
2019-03-08T11:12:08.980Z,78.14
2019-03-08T11:13:09.208Z,78.23
2019-03-08T11:14:09.441Z,79.28
2019-03-08T11:15:09.658Z,78.52
2019-03-08T11:16:09.884Z,78.14
2019-03-08T11:17:10.112Z,78.18
2019-03-08T11:18:10.341Z,78.47
2019-03-08T11:19:10.576Z,77.13
2019-03-08T11:20:10.797Z,76.75
2019-03-08T11:21:11.020Z,77.03
2019-03-08T11:22:11.247Z,76.46
2019-03-08T11:23:11.472Z,76.56
2019-03-08T11:24:11.700Z,77.13
2019-03-08T11:25:11.927Z,76.46
2019-03-08T11:26:12.153Z,76.56
2019-03-08T11:27:12.380Z,76.27
2019-03-08T11:28:20.774Z,76.65
2019-03-08T11:29:12.832Z,76.08
2019-03-08T11:30:13.475Z,75.37
2019-03-08T11:31:13.286Z,75.47
2019-03-08T11:32:22.524Z,76.90
2019-03-08T11:33:13.738Z,76.62
2019-03-08T11:34:13.965Z,77.19
2019-03-08T11:35:14.189Z,76.04
2019-03-08T11:36:14.418Z,77.03
2019-03-08T11:37:14.644Z,76.08
2019-03-08T11:38:14.869Z,76.08
2019-03-08T11:39:15.095Z,75.32
2019-03-08T11:40:15.323Z,74.27
2019-03-08T11:41:15.547Z,74.40
2019-03-08T11:42:15.775Z,73.92
2019-03-08T11:43:15.997Z,74.30
2019-03-08T11:44:16.220Z,74.02
2019-03-08T11:45:16.448Z,73.44
2019-03-08T11:46:16.675Z,71.82
2019-03-08T11:47:16.903Z,72.81
2019-03-08T11:48:17.241Z,71.95
2019-03-08T11:49:17.357Z,71.28
2019-03-08T11:50:17.603Z,70.58
2019-03-08T11:51:17.809Z,70.58
2019-03-08T11:52:18.035Z,69.62
2019-03-08T11:53:18.262Z,69.53
2019-03-08T11:54:18.488Z,70.20
2019-03-08T11:55:18.716Z,70.54
2019-03-08T11:56:18.944Z,70.36
2019-03-08T11:57:19.169Z,70.83
2019-03-08T11:58:19.396Z,71.31
2019-03-08T11:59:19.633Z,71.12
2019-03-08T12:01:20.079Z,70.92
2019-03-08T12:02:20.307Z,71.02
2019-03-08T12:03:20.531Z,71.31
2019-03-08T12:04:20.761Z,70.83
2019-03-08T12:05:20.987Z,70.07
2019-03-08T12:06:21.213Z,70.45
2019-03-08T12:07:21.440Z,70.45
2019-03-08T12:08:21.665Z,69.78
2019-03-08T12:09:21.899Z,70.54
2019-03-08T12:10:22.119Z,69.74
2019-03-08T12:11:22.343Z,69.84
2019-03-08T12:12:22.574Z,69.74
2019-03-08T12:13:22.796Z,70.22
2019-03-08T12:14:23.030Z,69.27
2019-03-08T12:15:23.252Z,70.70
2019-03-08T12:16:23.495Z,70.32
2019-03-08T12:17:23.694Z,70.79
2019-03-08T12:18:23.928Z,71.84
2019-03-08T12:19:24.159Z,71.27
2019-03-08T12:20:24.379Z,71.27
2019-03-08T12:21:24.629Z,71.56
2019-03-08T12:22:24.862Z,71.84
2019-03-08T12:23:25.088Z,71.66
2019-03-08T12:24:25.311Z,71.56
2019-03-08T12:25:25.536Z,71.59
2019-03-08T12:26:25.764Z,71.50
2019-03-08T12:27:25.989Z,71.27
2019-03-08T12:28:26.272Z,71.12
2019-03-08T12:29:26.446Z,70.03
2019-03-08T12:30:26.678Z,69.65
2019-03-08T12:31:26.899Z,68.60
2019-03-08T12:32:27.126Z,68.51
2019-03-08T12:33:27.351Z,69.17
2019-03-08T12:34:27.571Z,70.32
2019-03-08T12:35:27.798Z,70.42
2019-03-08T12:36:28.022Z,70.89
2019-03-08T12:37:28.251Z,70.98
2019-03-08T12:38:28.478Z,70.89
2019-03-08T12:39:28.703Z,70.79
2019-03-08T12:40:28.933Z,71.27
2019-03-08T12:41:29.156Z,70.79
2019-03-08T12:42:29.382Z,71.08
2019-03-08T12:43:29.611Z,71.08
2019-03-08T12:44:29.834Z,71.46
2019-03-08T12:45:30.061Z,70.98
2019-03-08T12:46:30.285Z,71.12
2019-03-08T12:47:30.517Z,70.83
2019-03-08T12:48:30.737Z,70.51
2019-03-08T12:49:30.966Z,70.32
2019-03-08T12:50:31.194Z,71.37
2019-03-08T12:51:31.418Z,70.98
2019-03-08T12:52:31.647Z,71.37
2019-03-08T12:53:31.871Z,70.89
2019-03-08T12:54:32.097Z,70.32
2019-03-08T12:55:32.323Z,70.22
2019-03-08T12:56:32.551Z,68.70